sensor_id;sensor_type;location;lat;lon;timestamp;P1;durP1;ratioP1;P2;durP2;ratioP2
36441;SDS011;64346;50.820;16.274;2023-04-25T00:02:10;4.32;;;2.78;;
36441;SDS011;64346;50.820;16.274;2023-04-25T00:04:40;4.63;;;2.78;;
36441;SDS011;64346;50.820;16.274;2023-04-25T00:07:10;5.50;;;3.10;;
36441;SDS011;64346;50.820;16.274;2023-04-25T00:09:40;4.63;;;2.92;;
36441;SDS011;64346;50.820;16.274;2023-04-25T00:12:08;5.72;;;2.75;;
36441;SDS011;64346;50.820;16.274;2023-04-25T00:14:35;4.85;;;2.90;;
36441;SDS011;64346;50.820;16.274;2023-04-25T00:17:05;4.50;;;2.85;;
36441;SDS011;64346;50.820;16.274;2023-04-25T00:19:32;5.40;;;3.08;;
36441;SDS011;64346;50.820;16.274;2023-04-25T00:21:59;5.57;;;2.95;;
36441;SDS011;64346;50.820;16.274;2023-04-25T00:24:26;5.25;;;3.13;;
36441;SDS011;64346;50.820;16.274;2023-04-25T00:26:56;6.03;;;3.10;;
36441;SDS011;64346;50.820;16.274;2023-04-25T00:29:23;6.00;;;2.80;;
36441;SDS011;64346;50.820;16.274;2023-04-25T00:31:50;5.25;;;3.00;;
36441;SDS011;64346;50.820;16.274;2023-04-25T00:34:17;6.90;;;3.15;;
36441;SDS011;64346;50.820;16.274;2023-04-25T00:36:47;5.57;;;3.00;;
36441;SDS011;64346;50.820;16.274;2023-04-25T00:39:14;7.38;;;3.60;;
36441;SDS011;64346;50.820;16.274;2023-04-25T00:41:42;8.20;;;3.10;;
36441;SDS011;64346;50.820;16.274;2023-04-25T00:44:09;5.78;;;3.10;;
36441;SDS011;64346;50.820;16.274;2023-04-25T00:46:38;5.45;;;3.10;;
36441;SDS011;64346;50.820;16.274;2023-04-25T00:49:05;7.80;;;3.10;;
36441;SDS011;64346;50.820;16.274;2023-04-25T00:51:33;5.35;;;3.00;;
36441;SDS011;64346;50.820;16.274;2023-04-25T00:54:00;7.80;;;4.45;;
36441;SDS011;64346;50.820;16.274;2023-04-25T00:56:28;5.68;;;3.28;;
36441;SDS011;64346;50.820;16.274;2023-04-25T00:58:55;5.00;;;2.90;;
36441;SDS011;64346;50.820;16.274;2023-04-25T01:01:23;7.45;;;3.53;;
36441;SDS011;64346;50.820;16.274;2023-04-25T01:03:50;5.22;;;2.83;;
36441;SDS011;64346;50.820;16.274;2023-04-25T01:06:21;4.82;;;2.78;;
36441;SDS011;64346;50.820;16.274;2023-04-25T01:08:48;5.05;;;2.80;;
36441;SDS011;64346;50.820;16.274;2023-04-25T01:11:16;6.13;;;3.00;;
36441;SDS011;64346;50.820;16.274;2023-04-25T01:13:43;6.85;;;3.22;;
36441;SDS011;64346;50.820;16.274;2023-04-25T01:16:11;6.15;;;3.08;;
36441;SDS011;64346;50.820;16.274;2023-04-25T01:18:38;5.13;;;2.70;;
36441;SDS011;64346;50.820;16.274;2023-04-25T01:21:10;5.60;;;2.53;;
36441;SDS011;64346;50.820;16.274;2023-04-25T01:23:40;6.45;;;2.67;;
36441;SDS011;64346;50.820;16.274;2023-04-25T01:26:09;5.68;;;2.90;;
36441;SDS011;64346;50.820;16.274;2023-04-25T01:28:38;8.10;;;3.10;;
36441;SDS011;64346;50.820;16.274;2023-04-25T01:31:06;4.82;;;2.75;;
36441;SDS011;64346;50.820;16.274;2023-04-25T01:33:37;3.63;;;2.30;;
36441;SDS011;64346;50.820;16.274;2023-04-25T01:36:04;6.78;;;3.10;;
36441;SDS011;64346;50.820;16.274;2023-04-25T01:38:32;8.35;;;3.20;;
36441;SDS011;64346;50.820;16.274;2023-04-25T01:41:00;6.45;;;3.13;;
36441;SDS011;64346;50.820;16.274;2023-04-25T01:43:30;5.43;;;2.90;;
36441;SDS011;64346;50.820;16.274;2023-04-25T01:45:57;6.70;;;3.42;;
36441;SDS011;64346;50.820;16.274;2023-04-25T01:48:25;5.85;;;3.10;;
36441;SDS011;64346;50.820;16.274;2023-04-25T01:50:52;7.40;;;3.17;;
36441;SDS011;64346;50.820;16.274;2023-04-25T01:53:19;7.53;;;3.20;;
36441;SDS011;64346;50.820;16.274;2023-04-25T01:55:47;7.13;;;3.20;;
36441;SDS011;64346;50.820;16.274;2023-04-25T01:58:14;6.55;;;3.25;;
36441;SDS011;64346;50.820;16.274;2023-04-25T02:00:41;7.07;;;3.38;;
36441;SDS011;64346;50.820;16.274;2023-04-25T02:03:11;8.43;;;3.15;;
36441;SDS011;64346;50.820;16.274;2023-04-25T02:05:38;5.35;;;3.35;;
36441;SDS011;64346;50.820;16.274;2023-04-25T02:08:06;8.02;;;4.03;;
36441;SDS011;64346;50.820;16.274;2023-04-25T02:10:35;5.55;;;3.25;;
36441;SDS011;64346;50.820;16.274;2023-04-25T02:13:05;5.97;;;3.38;;
36441;SDS011;64346;50.820;16.274;2023-04-25T02:15:33;6.97;;;3.35;;
36441;SDS011;64346;50.820;16.274;2023-04-25T02:18:00;8.90;;;3.38;;
36441;SDS011;64346;50.820;16.274;2023-04-25T02:20:29;8.20;;;3.42;;
36441;SDS011;64346;50.820;16.274;2023-04-25T02:22:59;7.55;;;3.75;;
36441;SDS011;64346;50.820;16.274;2023-04-25T02:25:26;6.32;;;3.67;;
36441;SDS011;64346;50.820;16.274;2023-04-25T02:27:53;9.07;;;3.22;;
36441;SDS011;64346;50.820;16.274;2023-04-25T02:30:23;7.90;;;3.90;;
36441;SDS011;64346;50.820;16.274;2023-04-25T02:32:50;7.53;;;3.67;;
36441;SDS011;64346;50.820;16.274;2023-04-25T02:35:17;11.45;;;3.97;;
36441;SDS011;64346;50.820;16.274;2023-04-25T02:37:45;8.23;;;3.88;;
36441;SDS011;64346;50.820;16.274;2023-04-25T02:40:14;8.15;;;3.65;;
36441;SDS011;64346;50.820;16.274;2023-04-25T02:42:41;7.80;;;3.78;;
36441;SDS011;64346;50.820;16.274;2023-04-25T02:45:09;5.90;;;3.42;;
36441;SDS011;64346;50.820;16.274;2023-04-25T02:47:36;6.50;;;3.58;;
36441;SDS011;64346;50.820;16.274;2023-04-25T02:50:06;6.90;;;3.30;;
36441;SDS011;64346;50.820;16.274;2023-04-25T02:52:36;6.10;;;3.35;;
36441;SDS011;64346;50.820;16.274;2023-04-25T02:55:05;8.48;;;3.60;;
36441;SDS011;64346;50.820;16.274;2023-04-25T02:57:33;7.45;;;3.30;;
36441;SDS011;64346;50.820;16.274;2023-04-25T03:00:00;7.93;;;3.35;;
36441;SDS011;64346;50.820;16.274;2023-04-25T03:02:27;9.27;;;3.72;;
36441;SDS011;64346;50.820;16.274;2023-04-25T03:04:55;9.15;;;4.60;;
36441;SDS011;64346;50.820;16.274;2023-04-25T03:07:22;6.88;;;3.55;;
36441;SDS011;64346;50.820;16.274;2023-04-25T03:09:49;6.72;;;3.20;;
36441;SDS011;64346;50.820;16.274;2023-04-25T03:12:16;7.07;;;3.58;;
36441;SDS011;64346;50.820;16.274;2023-04-25T03:14:44;7.85;;;3.53;;
36441;SDS011;64346;50.820;16.274;2023-04-25T03:17:13;6.95;;;3.65;;
36441;SDS011;64346;50.820;16.274;2023-04-25T03:19:41;6.20;;;3.25;;
36441;SDS011;64346;50.820;16.274;2023-04-25T03:22:10;7.72;;;4.00;;
36441;SDS011;64346;50.820;16.274;2023-04-25T03:24:38;10.18;;;4.40;;
36441;SDS011;64346;50.820;16.274;2023-04-25T03:27:05;8.63;;;3.83;;
36441;SDS011;64346;50.820;16.274;2023-04-25T03:29:35;8.07;;;4.30;;
36441;SDS011;64346;50.820;16.274;2023-04-25T03:32:02;7.50;;;4.30;;
36441;SDS011;64346;50.820;16.274;2023-04-25T03:34:30;7.70;;;3.60;;
36441;SDS011;64346;50.820;16.274;2023-04-25T03:36:57;8.07;;;3.85;;
36441;SDS011;64346;50.820;16.274;2023-04-25T03:39:26;7.97;;;3.75;;
36441;SDS011;64346;50.820;16.274;2023-04-25T03:41:56;8.48;;;4.00;;
36441;SDS011;64346;50.820;16.274;2023-04-25T03:44:23;10.82;;;5.60;;
36441;SDS011;64346;50.820;16.274;2023-04-25T03:46:50;8.57;;;4.25;;
36441;SDS011;64346;50.820;16.274;2023-04-25T03:49:17;8.75;;;4.47;;
36441;SDS011;64346;50.820;16.274;2023-04-25T03:51:45;9.82;;;4.95;;
36441;SDS011;64346;50.820;16.274;2023-04-25T03:54:12;12.50;;;6.45;;
36441;SDS011;64346;50.820;16.274;2023-04-25T03:56:39;10.32;;;5.18;;
36441;SDS011;64346;50.820;16.274;2023-04-25T03:59:06;8.50;;;4.22;;
36441;SDS011;64346;50.820;16.274;2023-04-25T04:01:36;9.02;;;3.75;;
36441;SDS011;64346;50.820;16.274;2023-04-25T04:04:05;12.25;;;4.10;;
36441;SDS011;64346;50.820;16.274;2023-04-25T04:06:33;9.40;;;3.80;;
36441;SDS011;64346;50.820;16.274;2023-04-25T04:09:03;7.80;;;4.18;;
36441;SDS011;64346;50.820;16.274;2023-04-25T04:11:30;8.20;;;4.50;;
36441;SDS011;64346;50.820;16.274;2023-04-25T04:13:57;18.50;;;8.63;;
36441;SDS011;64346;50.820;16.274;2023-04-25T04:16:24;8.35;;;4.70;;
36441;SDS011;64346;50.820;16.274;2023-04-25T04:18:52;10.02;;;4.18;;
36441;SDS011;64346;50.820;16.274;2023-04-25T04:21:21;9.65;;;4.50;;
36441;SDS011;64346;50.820;16.274;2023-04-25T04:23:49;10.50;;;4.50;;
36441;SDS011;64346;50.820;16.274;2023-04-25T04:26:16;12.32;;;4.82;;
36441;SDS011;64346;50.820;16.274;2023-04-25T04:28:46;9.88;;;4.10;;
36441;SDS011;64346;50.820;16.274;2023-04-25T04:31:16;9.38;;;4.32;;
36441;SDS011;64346;50.820;16.274;2023-04-25T04:33:44;17.55;;;6.40;;
36441;SDS011;64346;50.820;16.274;2023-04-25T04:36:11;10.68;;;4.40;;
36441;SDS011;64346;50.820;16.274;2023-04-25T04:38:41;11.50;;;5.00;;
36441;SDS011;64346;50.820;16.274;2023-04-25T04:41:08;14.32;;;6.35;;
36441;SDS011;64346;50.820;16.274;2023-04-25T04:43:35;14.23;;;5.60;;
36441;SDS011;64346;50.820;16.274;2023-04-25T04:46:02;10.82;;;5.45;;
36441;SDS011;64346;50.820;16.274;2023-04-25T04:48:33;15.65;;;5.70;;
36441;SDS011;64346;50.820;16.274;2023-04-25T04:51:02;16.95;;;6.75;;
36441;SDS011;64346;50.820;16.274;2023-04-25T04:53:32;9.93;;;5.00;;
36441;SDS011;64346;50.820;16.274;2023-04-25T04:55:59;14.50;;;6.10;;
36441;SDS011;64346;50.820;16.274;2023-04-25T04:58:29;12.95;;;5.60;;
36441;SDS011;64346;50.820;16.274;2023-04-25T05:00:56;10.85;;;5.28;;
36441;SDS011;64346;50.820;16.274;2023-04-25T05:03:24;12.45;;;5.38;;
36441;SDS011;64346;50.820;16.274;2023-04-25T05:05:54;11.98;;;5.45;;
36441;SDS011;64346;50.820;16.274;2023-04-25T05:08:22;14.15;;;5.50;;
36441;SDS011;64346;50.820;16.274;2023-04-25T05:10:49;10.77;;;5.10;;
36441;SDS011;64346;50.820;16.274;2023-04-25T05:13:16;10.80;;;5.30;;
36441;SDS011;64346;50.820;16.274;2023-04-25T05:15:43;10.57;;;5.13;;
36441;SDS011;64346;50.820;16.274;2023-04-25T05:18:11;14.43;;;6.53;;
36441;SDS011;64346;50.820;16.274;2023-04-25T05:20:40;13.20;;;6.20;;
36441;SDS011;64346;50.820;16.274;2023-04-25T05:23:08;12.07;;;5.68;;
36441;SDS011;64346;50.820;16.274;2023-04-25T05:25:37;20.67;;;11.70;;
36441;SDS011;64346;50.820;16.274;2023-04-25T05:28:05;43.65;;;26.77;;
36441;SDS011;64346;50.820;16.274;2023-04-25T05:30:32;23.50;;;8.43;;
36441;SDS011;64346;50.820;16.274;2023-04-25T05:33:01;15.82;;;6.78;;
36441;SDS011;64346;50.820;16.274;2023-04-25T05:35:28;19.25;;;7.72;;
36441;SDS011;64346;50.820;16.274;2023-04-25T05:37:55;16.00;;;6.38;;
36441;SDS011;64346;50.820;16.274;2023-04-25T05:40:23;13.70;;;6.35;;
36441;SDS011;64346;50.820;16.274;2023-04-25T05:42:50;26.08;;;15.57;;
36441;SDS011;64346;50.820;16.274;2023-04-25T05:45:17;21.35;;;12.25;;
36441;SDS011;64346;50.820;16.274;2023-04-25T05:47:45;17.98;;;8.20;;
36441;SDS011;64346;50.820;16.274;2023-04-25T05:50:14;12.13;;;5.68;;
36441;SDS011;64346;50.820;16.274;2023-04-25T05:52:42;14.60;;;6.10;;
36441;SDS011;64346;50.820;16.274;2023-04-25T05:55:09;14.23;;;5.10;;
36441;SDS011;64346;50.820;16.274;2023-04-25T05:57:38;14.02;;;6.22;;
36441;SDS011;64346;50.820;16.274;2023-04-25T06:00:05;13.30;;;5.22;;
36441;SDS011;64346;50.820;16.274;2023-04-25T06:02:34;13.45;;;5.38;;
36441;SDS011;64346;50.820;16.274;2023-04-25T06:05:02;11.57;;;5.40;;
36441;SDS011;64346;50.820;16.274;2023-04-25T06:07:29;12.00;;;4.93;;
36441;SDS011;64346;50.820;16.274;2023-04-25T06:09:57;9.23;;;4.35;;
36441;SDS011;64346;50.820;16.274;2023-04-25T06:12:26;10.25;;;4.45;;
36441;SDS011;64346;50.820;16.274;2023-04-25T06:14:58;9.27;;;3.72;;
36441;SDS011;64346;50.820;16.274;2023-04-25T06:17:26;7.72;;;4.05;;
36441;SDS011;64346;50.820;16.274;2023-04-25T06:19:53;11.63;;;6.40;;
36441;SDS011;64346;50.820;16.274;2023-04-25T06:22:20;11.70;;;6.15;;
36441;SDS011;64346;50.820;16.274;2023-04-25T06:24:49;12.52;;;5.93;;
36441;SDS011;64346;50.820;16.274;2023-04-25T06:27:19;10.23;;;4.60;;
36441;SDS011;64346;50.820;16.274;2023-04-25T06:29:49;10.88;;;4.78;;
36441;SDS011;64346;50.820;16.274;2023-04-25T06:32:18;9.05;;;4.60;;
36441;SDS011;64346;50.820;16.274;2023-04-25T06:34:46;10.52;;;4.10;;
36441;SDS011;64346;50.820;16.274;2023-04-25T06:37:15;8.32;;;3.80;;
36441;SDS011;64346;50.820;16.274;2023-04-25T06:39:45;7.72;;;3.50;;
36441;SDS011;64346;50.820;16.274;2023-04-25T06:42:12;5.90;;;3.03;;
36441;SDS011;64346;50.820;16.274;2023-04-25T06:44:42;7.75;;;3.58;;
36441;SDS011;64346;50.820;16.274;2023-04-25T06:47:09;6.38;;;3.03;;
36441;SDS011;64346;50.820;16.274;2023-04-25T06:49:36;7.13;;;3.40;;
36441;SDS011;64346;50.820;16.274;2023-04-25T06:52:06;7.97;;;3.92;;
36441;SDS011;64346;50.820;16.274;2023-04-25T06:54:34;7.63;;;3.53;;
36441;SDS011;64346;50.820;16.274;2023-04-25T06:57:03;7.32;;;3.33;;
36441;SDS011;64346;50.820;16.274;2023-04-25T06:59:31;8.27;;;3.85;;
36441;SDS011;64346;50.820;16.274;2023-04-25T07:02:01;8.25;;;3.30;;
36441;SDS011;64346;50.820;16.274;2023-04-25T07:04:28;7.60;;;3.38;;
36441;SDS011;64346;50.820;16.274;2023-04-25T07:06:55;9.68;;;4.95;;
36441;SDS011;64346;50.820;16.274;2023-04-25T07:09:25;9.82;;;4.80;;
36441;SDS011;64346;50.820;16.274;2023-04-25T07:11:52;8.20;;;3.80;;
36441;SDS011;64346;50.820;16.274;2023-04-25T07:14:20;5.97;;;3.30;;
36441;SDS011;64346;50.820;16.274;2023-04-25T07:16:47;7.97;;;3.47;;
36441;SDS011;64346;50.820;16.274;2023-04-25T07:19:17;12.05;;;4.00;;
36441;SDS011;64346;50.820;16.274;2023-04-25T07:21:44;8.90;;;3.50;;
36441;SDS011;64346;50.820;16.274;2023-04-25T07:24:14;6.20;;;2.97;;
36441;SDS011;64346;50.820;16.274;2023-04-25T07:26:44;8.70;;;3.65;;
36441;SDS011;64346;50.820;16.274;2023-04-25T07:29:11;7.35;;;3.03;;
36441;SDS011;64346;50.820;16.274;2023-04-25T07:31:43;8.27;;;3.78;;
36441;SDS011;64346;50.820;16.274;2023-04-25T07:34:10;5.38;;;2.90;;
36441;SDS011;64346;50.820;16.274;2023-04-25T07:36:38;4.68;;;2.47;;
36441;SDS011;64346;50.820;16.274;2023-04-25T07:39:07;7.38;;;3.10;;
36441;SDS011;64346;50.820;16.274;2023-04-25T07:41:37;7.07;;;3.10;;
36441;SDS011;64346;50.820;16.274;2023-04-25T07:44:04;5.18;;;2.72;;
36441;SDS011;64346;50.820;16.274;2023-04-25T07:46:32;6.15;;;2.90;;
36441;SDS011;64346;50.820;16.274;2023-04-25T07:48:59;5.88;;;2.90;;
36441;SDS011;64346;50.820;16.274;2023-04-25T07:51:26;8.07;;;3.05;;
36441;SDS011;64346;50.820;16.274;2023-04-25T07:53:54;6.20;;;3.20;;
36441;SDS011;64346;50.820;16.274;2023-04-25T07:56:21;5.80;;;2.50;;
36441;SDS011;64346;50.820;16.274;2023-04-25T07:58:49;7.93;;;3.78;;
36441;SDS011;64346;50.820;16.274;2023-04-25T08:01:19;4.57;;;2.50;;
36441;SDS011;64346;50.820;16.274;2023-04-25T08:03:48;5.07;;;2.60;;
36441;SDS011;64346;50.820;16.274;2023-04-25T08:06:16;3.95;;;2.30;;
36441;SDS011;64346;50.820;16.274;2023-04-25T08:08:46;5.82;;;2.90;;
36441;SDS011;64346;50.820;16.274;2023-04-25T08:11:14;5.53;;;2.65;;
36441;SDS011;64346;50.820;16.274;2023-04-25T08:13:43;4.85;;;2.55;;
36441;SDS011;64346;50.820;16.274;2023-04-25T08:16:13;5.05;;;2.30;;
36441;SDS011;64346;50.820;16.274;2023-04-25T08:18:40;4.85;;;2.58;;
36441;SDS011;64346;50.820;16.274;2023-04-25T08:21:08;5.05;;;2.40;;
36441;SDS011;64346;50.820;16.274;2023-04-25T08:23:35;4.95;;;2.30;;
36441;SDS011;64346;50.820;16.274;2023-04-25T08:26:03;3.30;;;2.00;;
36441;SDS011;64346;50.820;16.274;2023-04-25T08:28:32;4.78;;;1.90;;
36441;SDS011;64346;50.820;16.274;2023-04-25T08:31:00;4.45;;;2.47;;
36441;SDS011;64346;50.820;16.274;2023-04-25T08:33:30;4.43;;;2.55;;
36441;SDS011;64346;50.820;16.274;2023-04-25T08:35:57;6.78;;;2.58;;
36441;SDS011;64346;50.820;16.274;2023-04-25T08:38:27;5.20;;;2.05;;
36441;SDS011;64346;50.820;16.274;2023-04-25T08:40:54;3.42;;;1.80;;
36441;SDS011;64346;50.820;16.274;2023-04-25T08:43:23;2.95;;;2.00;;
36441;SDS011;64346;50.820;16.274;2023-04-25T08:45:52;3.30;;;1.58;;
36441;SDS011;64346;50.820;16.274;2023-04-25T08:48:25;5.43;;;2.35;;
36441;SDS011;64346;50.820;16.274;2023-04-25T08:50:56;4.88;;;1.83;;
36441;SDS011;64346;50.820;16.274;2023-04-25T08:53:29;3.15;;;1.80;;
36441;SDS011;64346;50.820;16.274;2023-04-25T08:56:00;4.47;;;1.83;;
36441;SDS011;64346;50.820;16.274;2023-04-25T08:58:28;4.90;;;1.92;;
36441;SDS011;64346;50.820;16.274;2023-04-25T09:00:56;3.47;;;2.15;;
36441;SDS011;64346;50.820;16.274;2023-04-25T09:03:23;4.38;;;2.60;;
36441;SDS011;64346;50.820;16.274;2023-04-25T09:05:51;3.72;;;1.90;;
36441;SDS011;64346;50.820;16.274;2023-04-25T09:08:18;3.65;;;1.65;;
36441;SDS011;64346;50.820;16.274;2023-04-25T09:10:48;4.85;;;2.10;;
36441;SDS011;64346;50.820;16.274;2023-04-25T09:13:23;4.53;;;2.10;;
36441;SDS011;64346;50.820;16.274;2023-04-25T09:15:55;4.57;;;1.70;;
36441;SDS011;64346;50.820;16.274;2023-04-25T09:18:25;4.10;;;1.95;;
36441;SDS011;64346;50.820;16.274;2023-04-25T09:26:39;4.68;;;2.38;;
36441;SDS011;64346;50.820;16.274;2023-04-25T09:29:07;3.70;;;2.10;;
36441;SDS011;64346;50.820;16.274;2023-04-25T09:31:37;3.38;;;1.65;;
36441;SDS011;64346;50.820;16.274;2023-04-25T09:34:04;3.47;;;1.92;;
36441;SDS011;64346;50.820;16.274;2023-04-25T09:36:31;4.18;;;1.90;;
36441;SDS011;64346;50.820;16.274;2023-04-25T09:39:02;5.65;;;1.80;;
36441;SDS011;64346;50.820;16.274;2023-04-25T09:41:32;5.75;;;1.85;;
36441;SDS011;64346;50.820;16.274;2023-04-25T09:44:04;4.07;;;1.88;;
36441;SDS011;64346;50.820;16.274;2023-04-25T09:46:34;4.00;;;1.65;;
36441;SDS011;64346;50.820;16.274;2023-04-25T09:49:07;3.85;;;1.63;;
36441;SDS011;64346;50.820;16.274;2023-04-25T09:51:34;6.72;;;2.22;;
36441;SDS011;64346;50.820;16.274;2023-04-25T09:54:02;10.85;;;3.70;;
36441;SDS011;64346;50.820;16.274;2023-04-25T09:56:32;13.70;;;3.75;;
36441;SDS011;64346;50.820;16.274;2023-04-25T09:59:03;6.18;;;2.33;;
36441;SDS011;64346;50.820;16.274;2023-04-25T10:01:33;5.07;;;2.00;;
36441;SDS011;64346;50.820;16.274;2023-04-25T10:04:01;3.42;;;1.85;;
36441;SDS011;64346;50.820;16.274;2023-04-25T10:06:35;5.63;;;1.92;;
36441;SDS011;64346;50.820;16.274;2023-04-25T10:09:05;6.10;;;2.33;;
36441;SDS011;64346;50.820;16.274;2023-04-25T10:11:33;5.10;;;1.80;;
36441;SDS011;64346;50.820;16.274;2023-04-25T10:14:01;4.65;;;2.05;;
36441;SDS011;64346;50.820;16.274;2023-04-25T10:16:29;4.30;;;1.60;;
36441;SDS011;64346;50.820;16.274;2023-04-25T10:18:59;6.47;;;2.67;;
36441;SDS011;64346;50.820;16.274;2023-04-25T10:21:27;3.83;;;1.80;;
36441;SDS011;64346;50.820;16.274;2023-04-25T10:24:00;4.13;;;1.80;;
36441;SDS011;64346;50.820;16.274;2023-04-25T10:26:28;3.92;;;1.55;;
36441;SDS011;64346;50.820;16.274;2023-04-25T10:28:58;4.75;;;1.85;;
36441;SDS011;64346;50.820;16.274;2023-04-25T10:31:26;4.28;;;1.85;;
36441;SDS011;64346;50.820;16.274;2023-04-25T10:33:56;5.25;;;1.80;;
36441;SDS011;64346;50.820;16.274;2023-04-25T10:36:30;6.70;;;2.20;;
36441;SDS011;64346;50.820;16.274;2023-04-25T10:39:02;8.52;;;3.53;;
36441;SDS011;64346;50.820;16.274;2023-04-25T10:41:33;3.38;;;1.98;;
36441;SDS011;64346;50.820;16.274;2023-04-25T10:44:13;2.83;;;1.60;;
36441;SDS011;64346;50.820;16.274;2023-04-25T10:46:40;6.70;;;2.00;;
36441;SDS011;64346;50.820;16.274;2023-04-25T10:49:10;4.50;;;2.17;;
36441;SDS011;64346;50.820;16.274;2023-04-25T10:52:10;4.53;;;1.90;;
36441;SDS011;64346;50.820;16.274;2023-04-25T10:54:47;3.97;;;1.83;;
36441;SDS011;64346;50.820;16.274;2023-04-25T10:59:58;3.92;;;1.90;;
36441;SDS011;64346;50.820;16.274;2023-04-25T11:02:29;4.75;;;1.90;;
36441;SDS011;64346;50.820;16.274;2023-04-25T11:04:56;5.03;;;1.90;;
36441;SDS011;64346;50.820;16.274;2023-04-25T11:08:08;5.95;;;2.03;;
36441;SDS011;64346;50.820;16.274;2023-04-25T11:10:32;6.50;;;2.85;;
36441;SDS011;64346;50.820;16.274;2023-04-25T11:13:00;7.22;;;2.92;;
36441;SDS011;64346;50.820;16.274;2023-04-25T11:15:30;5.68;;;2.67;;
36441;SDS011;64346;50.820;16.274;2023-04-25T11:17:57;5.32;;;1.80;;
36441;SDS011;64346;50.820;16.274;2023-04-25T11:20:25;3.70;;;1.55;;
36441;SDS011;64346;50.820;16.274;2023-04-25T11:22:52;4.75;;;1.90;;
36441;SDS011;64346;50.820;16.274;2023-04-25T11:25:20;4.40;;;2.00;;
36441;SDS011;64346;50.820;16.274;2023-04-25T11:27:57;4.32;;;1.73;;
36441;SDS011;64346;50.820;16.274;2023-04-25T11:30:28;6.55;;;2.17;;
36441;SDS011;64346;50.820;16.274;2023-04-25T11:32:58;6.00;;;2.35;;
36441;SDS011;64346;50.820;16.274;2023-04-25T11:35:27;5.68;;;2.30;;
36441;SDS011;64346;50.820;16.274;2023-04-25T11:37:55;5.43;;;2.05;;
36441;SDS011;64346;50.820;16.274;2023-04-25T11:40:22;7.28;;;2.58;;
36441;SDS011;64346;50.820;16.274;2023-04-25T11:42:49;4.18;;;2.25;;
36441;SDS011;64346;50.820;16.274;2023-04-25T11:45:20;6.40;;;2.20;;
36441;SDS011;64346;50.820;16.274;2023-04-25T11:47:49;6.15;;;2.53;;
36441;SDS011;64346;50.820;16.274;2023-04-25T11:50:19;7.40;;;2.50;;
36441;SDS011;64346;50.820;16.274;2023-04-25T11:52:47;10.27;;;2.90;;
36441;SDS011;64346;50.820;16.274;2023-04-25T11:55:16;5.72;;;2.25;;
36441;SDS011;64346;50.820;16.274;2023-04-25T11:57:46;6.82;;;2.63;;
36441;SDS011;64346;50.820;16.274;2023-04-25T12:00:16;6.28;;;2.78;;
36441;SDS011;64346;50.820;16.274;2023-04-25T12:02:50;4.97;;;2.33;;
36441;SDS011;64346;50.820;16.274;2023-04-25T12:05:26;8.10;;;3.05;;
36441;SDS011;64346;50.820;16.274;2023-04-25T12:08:12;6.68;;;3.08;;
36441;SDS011;64346;50.820;16.274;2023-04-25T12:10:40;6.45;;;2.40;;
36441;SDS011;64346;50.820;16.274;2023-04-25T12:13:17;3.70;;;1.92;;
36441;SDS011;64346;50.820;16.274;2023-04-25T12:15:49;7.43;;;2.17;;
36441;SDS011;64346;50.820;16.274;2023-04-25T12:18:20;3.65;;;1.50;;
36441;SDS011;64346;50.820;16.274;2023-04-25T12:20:49;5.03;;;1.73;;
36441;SDS011;64346;50.820;16.274;2023-04-25T12:23:24;6.00;;;2.10;;
36441;SDS011;64346;50.820;16.274;2023-04-25T12:25:55;5.15;;;1.88;;
36441;SDS011;64346;50.820;16.274;2023-04-25T12:28:25;5.78;;;1.90;;
36441;SDS011;64346;50.820;16.274;2023-04-25T12:31:05;3.28;;;1.58;;
36441;SDS011;64346;50.820;16.274;2023-04-25T12:33:34;3.83;;;2.05;;
36441;SDS011;64346;50.820;16.274;2023-04-25T12:36:05;3.35;;;1.85;;
36441;SDS011;64346;50.820;16.274;2023-04-25T12:38:35;7.93;;;2.58;;
36441;SDS011;64346;50.820;16.274;2023-04-25T12:41:04;4.88;;;1.90;;
36441;SDS011;64346;50.820;16.274;2023-04-25T12:43:31;3.15;;;1.90;;
36441;SDS011;64346;50.820;16.274;2023-04-25T12:45:58;4.35;;;1.90;;
36441;SDS011;64346;50.820;16.274;2023-04-25T12:48:25;5.85;;;2.15;;
36441;SDS011;64346;50.820;16.274;2023-04-25T12:50:55;4.25;;;1.80;;
36441;SDS011;64346;50.820;16.274;2023-04-25T12:53:22;5.63;;;2.00;;
36441;SDS011;64346;50.820;16.274;2023-04-25T12:55:50;5.22;;;1.60;;
36441;SDS011;64346;50.820;16.274;2023-04-25T12:58:19;5.22;;;2.75;;
36441;SDS011;64346;50.820;16.274;2023-04-25T13:00:47;6.45;;;2.53;;
36441;SDS011;64346;50.820;16.274;2023-04-25T13:03:14;5.88;;;1.80;;
36441;SDS011;64346;50.820;16.274;2023-04-25T13:05:42;7.57;;;2.83;;
36441;SDS011;64346;50.820;16.274;2023-04-25T13:08:09;6.00;;;2.70;;
36441;SDS011;64346;50.820;16.274;2023-04-25T13:10:39;6.45;;;2.40;;
36441;SDS011;64346;50.820;16.274;2023-04-25T13:13:06;4.03;;;2.53;;
36441;SDS011;64346;50.820;16.274;2023-04-25T13:15:33;8.48;;;3.92;;
36441;SDS011;64346;50.820;16.274;2023-04-25T13:18:03;5.93;;;2.13;;
36441;SDS011;64346;50.820;16.274;2023-04-25T13:20:31;5.72;;;2.70;;
36441;SDS011;64346;50.820;16.274;2023-04-25T13:23:00;3.30;;;2.03;;
36441;SDS011;64346;50.820;16.274;2023-04-25T13:25:30;4.93;;;2.47;;
36441;SDS011;64346;50.820;16.274;2023-04-25T13:27:57;3.60;;;2.40;;
36441;SDS011;64346;50.820;16.274;2023-04-25T13:30:25;5.75;;;2.20;;
36441;SDS011;64346;50.820;16.274;2023-04-25T13:32:52;3.75;;;2.03;;
36441;SDS011;64346;50.820;16.274;2023-04-25T13:35:20;4.38;;;2.08;;
36441;SDS011;64346;50.820;16.274;2023-04-25T13:37:47;6.85;;;2.55;;
36441;SDS011;64346;50.820;16.274;2023-04-25T13:40:14;4.68;;;1.90;;
36441;SDS011;64346;50.820;16.274;2023-04-25T13:42:42;5.78;;;2.38;;
36441;SDS011;64346;50.820;16.274;2023-04-25T13:45:09;5.93;;;2.30;;
36441;SDS011;64346;50.820;16.274;2023-04-25T13:47:36;6.47;;;1.98;;
36441;SDS011;64346;50.820;16.274;2023-04-25T13:50:04;6.03;;;2.58;;
36441;SDS011;64346;50.820;16.274;2023-04-25T13:52:31;9.10;;;3.55;;
36441;SDS011;64346;50.820;16.274;2023-04-25T13:54:59;5.63;;;2.60;;
36441;SDS011;64346;50.820;16.274;2023-04-25T13:57:29;5.10;;;2.30;;
36441;SDS011;64346;50.820;16.274;2023-04-25T13:59:57;6.30;;;2.80;;
36441;SDS011;64346;50.820;16.274;2023-04-25T14:02:27;7.55;;;2.58;;
36441;SDS011;64346;50.820;16.274;2023-04-25T14:04:54;5.45;;;1.98;;
36441;SDS011;64346;50.820;16.274;2023-04-25T14:07:22;7.53;;;2.30;;
36441;SDS011;64346;50.820;16.274;2023-04-25T14:09:51;6.68;;;2.20;;
36441;SDS011;64346;50.820;16.274;2023-04-25T14:12:18;6.95;;;3.00;;
36441;SDS011;64346;50.820;16.274;2023-04-25T14:14:45;7.22;;;2.22;;
36441;SDS011;64346;50.820;16.274;2023-04-25T14:17:12;6.43;;;2.33;;
36441;SDS011;64346;50.820;16.274;2023-04-25T14:19:40;4.57;;;2.00;;
36441;SDS011;64346;50.820;16.274;2023-04-25T14:22:12;5.38;;;2.30;;
36441;SDS011;64346;50.820;16.274;2023-04-25T14:24:39;7.05;;;2.53;;
36441;SDS011;64346;50.820;16.274;2023-04-25T14:27:06;8.13;;;2.70;;
36441;SDS011;64346;50.820;16.274;2023-04-25T14:29:34;9.60;;;3.00;;
36441;SDS011;64346;50.820;16.274;2023-04-25T14:32:01;7.00;;;2.30;;
36441;SDS011;64346;50.820;16.274;2023-04-25T14:34:28;8.13;;;3.55;;
36441;SDS011;64346;50.820;16.274;2023-04-25T14:36:55;9.55;;;4.88;;
36441;SDS011;64346;50.820;16.274;2023-04-25T14:39:23;4.80;;;2.78;;
36441;SDS011;64346;50.820;16.274;2023-04-25T14:41:50;7.57;;;2.40;;
36441;SDS011;64346;50.820;16.274;2023-04-25T14:44:17;5.70;;;2.40;;
36441;SDS011;64346;50.820;16.274;2023-04-25T14:46:44;6.15;;;2.60;;
36441;SDS011;64346;50.820;16.274;2023-04-25T14:49:12;9.43;;;3.08;;
36441;SDS011;64346;50.820;16.274;2023-04-25T14:51:39;5.60;;;2.38;;